Time;durP1;ratioP1;P1;durP2;ratioP2;P2;SDS_P1;SDS_P2;PMS_P1;PMS_P2;Temp;Humidity;BMP_temperature;BMP_pressure;BME280_temperature;BME280_humidity;BME280_pressure;Samples;Min_cycle;Max_cycle;Signal;HPM_P1;HPM_P2
2021/10/30 00:00:11;;;;;;;18.02;11.48;;;11.40;99.90;;;;;;5013754;28;20037;-88
2021/10/30 00:02:37;;;;;;;12.45;9.48;;;11.40;99.90;;;;;;5013679;28;20187;-87
2021/10/30 00:05:05;;;;;;;21.95;11.05;;;11.40;99.90;;;;;;4997228;28;20091;-88
2021/10/30 00:07:31;;;;;;;16.65;9.23;;;11.40;99.90;;;;;;4997679;28;20088;-87
2021/10/30 00:09:56;;;;;;;13.82;9.77;;;11.30;99.90;;;;;;5013719;28;20080;-88
2021/10/30 00:12:22;;;;;;;18.45;10.48;;;11.30;99.90;;;;;;4981371;28;20465;-88
2021/10/30 00:14:48;;;;;;;15.73;10.13;;;11.20;99.90;;;;;;5013931;28;20044;-87
2021/10/30 00:17:14;;;;;;;14.70;10.10;;;11.20;99.90;;;;;;4997027;28;20045;-87
2021/10/30 00:19:41;;;;;;;14.30;10.35;;;11.20;99.90;;;;;;5013664;28;20103;-87
2021/10/30 00:22:08;;;;;;;15.68;10.27;;;11.10;99.90;;;;;;4996593;28;20045;-89
2021/10/30 00:24:34;;;;;;;13.52;10.40;;;11.10;99.90;;;;;;4981195;28;20107;-88
2021/10/30 00:27:00;;;;;;;16.58;9.18;;;11.10;99.90;;;;;;5013255;28;20041;-88
2021/10/30 00:29:27;;;;;;;17.70;11.10;;;11.00;99.90;;;;;;4981301;28;20132;-89
2021/10/30 00:31:54;;;;;;;19.52;10.30;;;11.10;99.90;;;;;;5013598;28;20064;-89
2021/10/30 00:34:21;;;;;;;18.52;10.32;;;11.10;99.90;;;;;;5016770;28;20052;-89
2021/10/30 00:36:47;;;;;;;19.58;10.80;;;11.10;99.90;;;;;;5017657;28;20049;-89
2021/10/30 00:39:12;;;;;;;14.50;9.73;;;11.00;99.90;;;;;;5017223;28;20092;-89
2021/10/30 00:41:38;;;;;;;20.13;9.80;;;11.00;99.90;;;;;;5001397;28;20484;-88
2021/10/30 00:44:10;;;;;;;14.98;9.88;;;11.00;99.90;;;;;;4984587;28;20138;-89
2021/10/30 00:46:40;;;;;;;16.45;9.50;;;10.90;99.90;;;;;;5017087;28;20041;-88
2021/10/30 00:49:06;;;;;;;14.50;9.63;;;10.80;99.90;;;;;;5016850;28;20381;-88
2021/10/30 00:51:35;;;;;;;22.05;10.23;;;10.80;99.90;;;;;;4984686;28;20288;-88
2021/10/30 00:54:02;;;;;;;22.87;10.47;;;10.80;99.90;;;;;;5000807;28;20046;-89
2021/10/30 00:56:31;;;;;;;16.55;9.48;;;10.70;99.90;;;;;;5001136;28;20041;-88
2021/10/30 00:59:00;;;;;;;17.05;8.98;;;10.70;99.90;;;;;;5001136;28;20465;-89
2021/10/30 01:01:26;;;;;;;17.08;9.57;;;10.60;99.90;;;;;;5017009;28;20037;-88
2021/10/30 01:03:52;;;;;;;14.50;8.82;;;10.50;99.90;;;;;;5016912;28;20038;-88
2021/10/30 01:06:19;;;;;;;15.88;9.00;;;10.60;99.90;;;;;;5000372;28;20067;-88
2021/10/30 01:08:45;;;;;;;15.13;9.88;;;10.50;99.90;;;;;;5017090;28;20052;-89
2021/10/30 01:11:15;;;;;;;10.98;8.98;;;10.40;99.90;;;;;;5000256;28;20037;-91
2021/10/30 01:13:42;;;;;;;14.18;9.15;;;10.40;99.90;;;;;;5016774;28;20122;-90
2021/10/30 01:16:08;;;;;;;14.63;9.02;;;10.40;99.90;;;;;;5016196;28;20150;-89
2021/10/30 01:18:34;;;;;;;14.13;8.80;;;10.30;99.90;;;;;;4984433;28;20136;-89
2021/10/30 01:21:00;;;;;;;19.45;11.98;;;10.30;99.90;;;;;;4984457;28;20045;-89
2021/10/30 01:23:26;;;;;;;28.10;15.80;;;10.30;99.90;;;;;;4983324;28;20553;-90
2021/10/30 01:25:57;;;;;;;31.70;20.25;;;10.30;99.90;;;;;;5033193;28;20485;-90
2021/10/30 01:28:25;;;;;;;29.67;18.63;;;10.30;99.90;;;;;;4999921;28;20046;-90
2021/10/30 01:30:51;;;;;;;32.30;14.65;;;10.30;99.90;;;;;;5016787;28;20084;-88
2021/10/30 01:33:16;;;;;;;19.17;12.95;;;10.20;99.90;;;;;;4999910;28;20077;-89
2021/10/30 01:35:42;;;;;;;20.30;13.00;;;10.20;99.90;;;;;;5000198;28;20044;-88
2021/10/30 01:38:09;;;;;;;23.50;13.30;;;10.10;99.90;;;;;;4999896;28;20041;-88
2021/10/30 01:40:44;;;;;;;21.40;13.63;;;10.10;99.90;;;;;;5000357;28;20091;-88
2021/10/30 01:43:10;;;;;;;25.02;14.27;;;10.10;99.90;;;;;;5015975;28;20124;-88
2021/10/30 01:45:36;;;;;;;20.60;13.77;;;10.10;99.90;;;;;;5015267;28;20077;-88
2021/10/30 01:48:03;;;;;;;22.35;14.18;;;10.00;99.90;;;;;;4983894;28;20080;-90
2021/10/30 01:50:29;;;;;;;25.40;14.00;;;10.00;99.90;;;;;;5016010;28;20045;-89
2021/10/30 01:52:59;;;;;;;20.13;13.43;;;10.00;99.90;;;;;;5000001;28;20046;-89
2021/10/30 01:55:26;;;;;;;19.15;13.02;;;9.90;99.90;;;;;;5016035;28;20056;-89
2021/10/30 01:57:52;;;;;;;22.90;13.38;;;9.90;99.90;;;;;;4999954;28;20543;-89
2021/10/30 02:00:18;;;;;;;29.35;13.95;;;9.80;99.90;;;;;;4999544;28;20172;-89
2021/10/30 02:02:44;;;;;;;26.08;12.57;;;9.70;99.90;;;;;;5016215;28;20480;-89
2021/10/30 02:05:12;;;;;;;22.05;13.07;;;9.80;99.90;;;;;;5015527;28;20473;-89
2021/10/30 02:07:38;;;;;;;21.52;13.73;;;9.70;99.90;;;;;;5016056;28;20037;-89
2021/10/30 02:10:06;;;;;;;29.30;13.23;;;9.70;99.90;;;;;;4999674;28;20046;-90
2021/10/30 02:12:32;;;;;;;17.15;11.52;;;9.70;99.90;;;;;;5015827;28;20041;-89
2021/10/30 02:14:58;;;;;;;28.85;12.27;;;9.60;99.90;;;;;;5015860;28;20496;-88
2021/10/30 02:17:24;;;;;;;24.35;11.32;;;9.50;99.90;;;;;;5015483;28;20096;-88
2021/10/30 02:19:49;;;;;;;22.20;11.02;;;9.50;99.90;;;;;;5015599;28;20041;-88
2021/10/30 02:22:15;;;;;;;17.27;11.02;;;9.50;99.90;;;;;;4995320;28;20116;-90
2021/10/30 02:24:41;;;;;;;17.30;10.32;;;9.50;99.90;;;;;;4979435;28;20041;-89
2021/10/30 02:27:07;;;;;;;19.35;10.68;;;9.50;99.90;;;;;;4996198;28;20044;-89
2021/10/30 02:29:33;;;;;;;13.15;8.75;;;9.40;99.90;;;;;;4995781;28;20381;-88
2021/10/30 02:32:00;;;;;;;17.10;8.98;;;9.40;99.90;;;;;;4979610;28;20600;-89
2021/10/30 02:34:25;;;;;;;21.88;9.93;;;9.40;99.90;;;;;;4979555;28;20053;-89
2021/10/30 02:36:51;;;;;;;16.42;9.32;;;9.30;99.90;;;;;;4996083;28;20049;-89
2021/10/30 02:39:17;;;;;;;13.73;9.27;;;9.40;99.90;;;;;;4995714;28;20124;-89
2021/10/30 02:41:42;;;;;;;19.75;11.88;;;9.40;99.90;;;;;;4995582;28;20042;-90
2021/10/30 02:44:08;;;;;;;30.25;14.82;;;9.30;99.90;;;;;;4995931;28;20092;-89
2021/10/30 02:46:35;;;;;;;27.02;15.27;;;9.40;99.90;;;;;;5011484;28;20037;-89
2021/10/30 02:49:01;;;;;;;29.98;16.75;;;9.40;99.90;;;;;;4995782;28;20056;-89
2021/10/30 02:51:27;;;;;;;27.70;17.27;;;9.30;99.90;;;;;;5011698;28;20128;-89
2021/10/30 02:53:53;;;;;;;30.25;17.13;;;9.30;99.90;;;;;;4995640;28;20450;-90
2021/10/30 02:56:18;;;;;;;23.67;15.55;;;9.30;99.90;;;;;;5011554;28;20113;-87
2021/10/30 02:58:44;;;;;;;23.33;13.80;;;9.30;99.90;;;;;;5011925;28;20605;-88
2021/10/30 03:01:10;;;;;;;23.02;11.88;;;9.20;99.90;;;;;;4995379;28;20037;-90
2021/10/30 03:03:35;;;;;;;18.48;10.35;;;9.10;99.90;;;;;;4978813;28;20104;-88
2021/10/30 03:06:01;;;;;;;16.83;10.38;;;9.10;99.90;;;;;;4995311;28;20076;-88
2021/10/30 03:08:27;;;;;;;22.73;10.43;;;9.10;99.90;;;;;;4995029;28;20099;-87
2021/10/30 03:10:52;;;;;;;20.63;10.10;;;9.10;99.90;;;;;;4979156;28;20045;-88
2021/10/30 03:13:18;;;;;;;20.83;11.27;;;9.00;99.90;;;;;;5011224;28;20547;-87
2021/10/30 03:15:44;;;;;;;19.70;10.82;;;9.10;99.90;;;;;;4995281;28;20359;-89
2021/10/30 03:18:09;;;;;;;16.17;10.93;;;9.20;99.90;;;;;;4995177;28;20045;-88
2021/10/30 03:20:36;;;;;;;20.35;9.95;;;9.20;99.90;;;;;;4994712;28;20071;-88
2021/10/30 03:23:01;;;;;;;20.10;9.73;;;9.20;99.90;;;;;;4994655;28;20064;-89
2021/10/30 03:25:27;;;;;;;22.02;11.20;;;9.10;99.90;;;;;;4978489;28;20129;-89
2021/10/30 03:27:53;;;;;;;20.38;10.70;;;9.10;99.90;;;;;;4995272;28;20128;-90
2021/10/30 03:30:20;;;;;;;16.50;10.38;;;9.00;99.90;;;;;;5010669;28;20053;-89
2021/10/30 03:32:46;;;;;;;18.08;10.63;;;9.00;99.90;;;;;;4994629;28;20062;-90
2021/10/30 03:35:11;;;;;;;21.13;11.13;;;8.90;99.90;;;;;;4995010;28;20050;-89
2021/10/30 03:37:38;;;;;;;20.88;11.00;;;8.90;99.90;;;;;;4978147;28;20042;-89
2021/10/30 03:40:06;;;;;;;22.95;11.98;;;8.90;99.90;;;;;;5011413;28;20038;-89
2021/10/30 03:42:32;;;;;;;22.58;12.05;;;8.90;99.90;;;;;;4979275;28;20056;-88
2021/10/30 03:44:58;;;;;;;28.70;12.25;;;8.90;99.90;;;;;;4994653;28;20492;-89
2021/10/30 03:47:24;;;;;;;26.67;13.23;;;8.90;99.90;;;;;;5010708;28;20422;-89
2021/10/30 03:49:50;;;;;;;23.20;12.95;;;8.90;99.90;;;;;;4995004;28;20137;-89
2021/10/30 03:52:16;;;;;;;23.20;13.15;;;8.80;99.90;;;;;;4994724;28;20540;-91
2021/10/30 03:54:42;;;;;;;25.95;13.80;;;8.80;99.90;;;;;;5011069;28;20052;-90
2021/10/30 03:57:07;;;;;;;28.85;15.57;;;8.80;99.90;;;;;;4994712;28;20037;-89
2021/10/30 03:59:33;;;;;;;26.15;15.68;;;8.80;99.90;;;;;;5010683;28;20121;-91
2021/10/30 04:02:02;;;;;;;40.85;17.83;;;8.90;99.90;;;;;;5010867;28;20044;-88
2021/10/30 04:04:28;;;;;;;36.38;16.48;;;8.90;99.90;;;;;;5010294;28;20054;-89
2021/10/30 04:06:54;;;;;;;33.17;15.15;;;8.90;99.90;;;;;;4994142;28;20442;-88
2021/10/30 04:09:21;;;;;;;35.75;16.73;;;8.90;99.90;;;;;;4993656;28;20038;-88
2021/10/30 04:11:47;;;;;;;33.20;18.33;;;8.80;99.90;;;;;;5010585;28;20172;-89
2021/10/30 04:14:13;;;;;;;33.95;16.50;;;8.80;99.90;;;;;;5010808;28;20038;-88
2021/10/30 04:16:39;;;;;;;32.95;17.10;;;8.80;99.90;;;;;;5010558;28;20046;-88
2021/10/30 04:19:05;;;;;;;36.20;17.40;;;8.90;99.90;;;;;;4978417;28;20096;-88
2021/10/30 04:21:31;;;;;;;38.05;17.98;;;8.90;99.90;;;;;;4996598;28;20150;-88
2021/10/30 04:23:58;;;;;;;36.35;18.50;;;8.90;99.90;;;;;;5014009;28;20045;-88
2021/10/30 04:26:25;;;;;;;33.42;17.30;;;8.90;99.90;;;;;;5013264;28;20047;-88
2021/10/30 04:28:51;;;;;;;32.63;16.02;;;8.90;99.90;;;;;;4997670;28;20041;-87
2021/10/30 04:31:22;;;;;;;38.42;18.83;;;8.80;99.90;;;;;;5013250;28;20424;-88
2021/10/30 04:33:48;;;;;;;46.97;20.52;;;8.90;99.90;;;;;;4998382;28;20041;-88
2021/10/30 04:36:17;;;;;;;34.95;17.98;;;8.80;99.90;;;;;;4997597;28;20053;-89
2021/10/30 04:38:44;;;;;;;39.40;17.88;;;8.80;99.90;;;;;;4981583;28;20046;-87
2021/10/30 04:41:11;;;;;;;44.17;20.40;;;8.80;99.90;;;;;;5013583;28;20627;-88
2021/10/30 04:43:37;;;;;;;36.95;19.30;;;8.80;99.90;;;;;;4996824;28;20041;-88
2021/10/30 04:46:03;;;;;;;34.65;18.08;;;8.80;99.90;;;;;;4996882;28;20119;-89
2021/10/30 04:48:29;;;;;;;40.17;20.63;;;8.70;99.90;;;;;;4996966;28;20041;-87
2021/10/30 04:50:55;;;;;;;39.90;20.30;;;8.80;99.90;;;;;;4997058;28;20468;-88
2021/10/30 04:53:21;;;;;;;44.55;19.48;;;8.80;99.90;;;;;;4980929;28;20077;-88
2021/10/30 04:55:46;;;;;;;42.30;21.52;;;8.90;99.90;;;;;;5013716;28;20382;-89
2021/10/30 04:58:12;;;;;;;51.13;21.08;;;8.70;99.90;;;;;;4997646;28;20056;-88
2021/10/30 05:00:37;;;;;;;47.38;22.75;;;8.70;99.90;;;;;;5013041;28;20045;-88
2021/10/30 05:03:03;;;;;;;52.13;23.25;;;8.80;99.90;;;;;;4997551;28;20034;-88
2021/10/30 05:05:29;;;;;;;44.63;21.88;;;8.80;99.90;;;;;;4997323;28;20072;-89
2021/10/30 05:07:55;;;;;;;48.28;22.77;;;8.90;99.90;;;;;;5013847;28;20086;-88
2021/10/30 05:10:20;;;;;;;45.58;23.08;;;8.80;99.90;;;;;;5013646;28;20134;-91
2021/10/30 05:12:46;;;;;;;48.78;24.08;;;8.90;99.90;;;;;;4997103;28;20041;-87
2021/10/30 05:15:12;;;;;;;45.83;22.65;;;8.90;99.90;;;;;;4997091;28;20041;-87
2021/10/30 05:17:38;;;;;;;50.50;22.65;;;9.00;99.90;;;;;;4996575;28;20041;-88
2021/10/30 05:20:05;;;;;;;44.95;23.95;;;9.00;99.90;;;;;;5016116;28;20037;-87
2021/10/30 05:22:30;;;;;;;51.47;25.10;;;9.00;99.90;;;;;;4999873;28;20057;-88
2021/10/30 05:24:56;;;;;;;46.42;25.38;;;9.10;99.90;;;;;;5016795;28;20354;-88
2021/10/30 05:27:22;;;;;;;51.38;25.92;;;9.10;99.90;;;;;;4984496;28;20055;-89
2021/10/30 05:29:47;;;;;;;51.13;26.00;;;9.00;99.90;;;;;;5000356;28;20041;-88
2021/10/30 05:32:13;;;;;;;49.83;24.90;;;9.10;99.90;;;;;;5016794;28;20641;-86
2021/10/30 05:34:39;;;;;;;48.08;24.15;;;9.10;99.90;;;;;;5000122;28;20477;-87
2021/10/30 05:37:05;;;;;;;51.88;24.58;;;9.10;99.90;;;;;;5016792;28;20037;-87
2021/10/30 05:39:31;;;;;;;48.05;23.60;;;9.20;99.90;;;;;;5016297;28;20137;-86
2021/10/30 05:41:56;;;;;;;48.97;24.98;;;9.20;99.90;;;;;;5000394;28;20459;-87
2021/10/30 05:44:22;;;;;;;47.95;24.33;;;9.20;99.90;;;;;;5016221;28;20053;-89
2021/10/30 05:46:48;;;;;;;45.55;22.85;;;9.20;99.90;;;;;;5015976;28;20037;-88
2021/10/30 05:49:15;;;;;;;48.25;24.73;;;9.30;99.90;;;;;;5000250;28;20080;-89
2021/10/30 05:51:41;;;;;;;44.28;23.50;;;9.30;99.90;;;;;;4999831;28;20053;-87
2021/10/30 05:54:07;;;;;;;41.75;23.65;;;9.30;99.90;;;;;;5000089;28;20045;-88
2021/10/30 05:56:33;;;;;;;42.90;21.75;;;9.30;99.90;;;;;;5015902;28;20052;-87
2021/10/30 05:58:58;;;;;;;39.38;22.85;;;9.40;99.90;;;;;;5016167;28;20053;-87
2021/10/30 06:01:24;;;;;;;40.22;20.63;;;9.50;99.90;;;;;;5000005;28;20465;-90
2021/10/30 06:03:50;;;;;;;35.42;21.13;;;9.40;99.90;;;;;;5015820;28;20124;-89
2021/10/30 06:06:16;;;;;;;40.13;20.00;;;9.40;99.90;;;;;;4983772;28;20040;-89
2021/10/30 06:08:41;;;;;;;42.08;19.60;;;9.50;99.90;;;;;;4983453;28;20048;-90
2021/10/30 06:11:07;;;;;;;32.20;18.83;;;9.60;99.90;;;;;;5000034;28;20045;-89
2021/10/30 06:13:33;;;;;;;28.15;18.25;;;9.50;99.90;;;;;;4999380;28;20046;-89
2021/10/30 06:15:59;;;;;;;38.47;19.15;;;9.60;99.90;;;;;;4999740;28;20350;-90
2021/10/30 06:18:25;;;;;;;29.35;17.35;;;9.60;99.90;;;;;;4999787;28;20033;-89
2021/10/30 06:20:50;;;;;;;28.13;17.65;;;9.60;99.90;;;;;;4999496;28;20045;-91
2021/10/30 06:23:16;;;;;;;30.13;16.73;;;9.60;99.90;;;;;;5016085;28;20060;-91
2021/10/30 06:25:43;;;;;;;29.20;16.77;;;9.60;99.90;;;;;;4999722;28;20477;-91
2021/10/30 06:28:12;;;;;;;30.75;16.75;;;9.60;99.90;;;;;;4999811;28;20042;-91
2021/10/30 06:30:38;;;;;;;29.07;16.73;;;9.70;99.90;;;;;;5015101;28;20041;-90
2021/10/30 06:33:04;;;;;;;25.75;15.38;;;9.70;99.90;;;;;;4999202;28;20045;-90
2021/10/30 06:35:30;;;;;;;27.30;15.10;;;9.60;99.90;;;;;;4999007;28;20045;-89
2021/10/30 06:37:57;;;;;;;24.48;14.13;;;9.70;99.90;;;;;;4999384;28;20041;-90
2021/10/30 06:40:24;;;;;;;25.58;14.23;;;9.70;99.90;;;;;;4999437;28;20044;-89
2021/10/30 06:42:49;;;;;;;18.40;12.65;;;9.70;99.90;;;;;;4998869;28;20052;-90
2021/10/30 06:45:15;;;;;;;21.98;12.38;;;9.70;99.90;;;;;;4983215;28;20045;-90
2021/10/30 06:47:41;;;;;;;20.48;11.70;;;9.70;99.90;;;;;;4998805;28;20045;-90
2021/10/30 06:50:08;;;;;;;23.40;12.82;;;9.80;99.90;;;;;;5015514;28;20046;-90
2021/10/30 06:52:37;;;;;;;18.35;11.25;;;9.80;99.90;;;;;;5015052;28;20045;-89
2021/10/30 06:55:08;;;;;;;18.58;11.40;;;9.80;99.90;;;;;;4999276;28;20042;-89
2021/10/30 06:57:35;;;;;;;15.55;10.88;;;9.80;99.90;;;;;;4998812;28;20492;-90
2021/10/30 07:00:04;;;;;;;19.80;11.27;;;9.80;99.90;;;;;;5015121;28;20064;-88
2021/10/30 07:02:30;;;;;;;14.88;10.45;;;9.80;99.90;;;;;;4983272;28;20045;-90
2021/10/30 07:04:58;;;;;;;17.77;10.85;;;9.80;99.90;;;;;;4998815;28;20496;-89
2021/10/30 07:07:24;;;;;;;17.92;9.98;;;9.90;99.90;;;;;;5014959;28;20489;-88
2021/10/30 07:09:50;;;;;;;14.30;9.80;;;9.90;99.90;;;;;;5014821;28;20069;-89
2021/10/30 07:12:15;;;;;;;17.08;10.48;;;9.90;99.90;;;;;;4998724;28;20473;-89
2021/10/30 07:14:41;;;;;;;14.27;9.23;;;10.00;99.90;;;;;;5014697;28;20045;-90
2021/10/30 07:17:07;;;;;;;12.93;9.63;;;10.00;99.90;;;;;;5014955;28;20045;-90
2021/10/30 07:19:33;;;;;;;23.90;9.30;;;10.00;99.90;;;;;;4998454;28;20051;-91
2021/10/30 07:21:59;;;;;;;19.02;9.35;;;9.90;99.90;;;;;;5014728;28;20053;-90
2021/10/30 07:24:25;;;;;;;14.52;9.90;;;10.00;99.90;;;;;;5014968;28;20429;-89
2021/10/30 07:26:51;;;;;;;17.95;9.43;;;10.00;99.90;;;;;;4997917;28;20047;-89
2021/10/30 07:29:16;;;;;;;16.75;9.23;;;10.00;99.90;;;;;;4982383;28;20041;-90
2021/10/30 07:31:42;;;;;;;14.05;8.68;;;10.00;99.90;;;;;;5014330;28;20124;-89
2021/10/30 07:34:08;;;;;;;17.77;9.20;;;10.10;99.90;;;;;;4997941;28;20037;-87
2021/10/30 07:36:34;;;;;;;14.45;8.75;;;10.10;99.90;;;;;;5014301;28;20037;-88
2021/10/30 07:38:59;;;;;;;12.57;8.25;;;10.10;99.90;;;;;;4998132;28;20041;-88
2021/10/30 07:41:25;;;;;;;18.60;8.63;;;10.20;99.90;;;;;;5014178;28;20049;-87
2021/10/30 07:43:54;;;;;;;15.45;8.25;;;10.20;99.90;;;;;;4996794;28;20107;-88
2021/10/30 07:46:22;;;;;;;12.80;8.18;;;10.20;99.90;;;;;;5014109;28;20046;-87
2021/10/30 07:48:48;;;;;;;10.25;8.07;;;10.20;99.90;;;;;;5013845;28;20052;-87
2021/10/30 07:51:13;;;;;;;13.57;7.75;;;10.30;99.90;;;;;;4997857;28;20053;-87
2021/10/30 07:53:39;;;;;;;10.35;7.97;;;10.30;99.90;;;;;;4997505;28;20039;-87
2021/10/30 07:56:05;;;;;;;14.55;8.20;;;10.30;99.90;;;;;;4997912;28;20060;-88
2021/10/30 07:58:30;;;;;;;14.32;8.57;;;10.30;99.90;;;;;;5014188;28;20484;-87
2021/10/30 08:00:56;;;;;;;18.52;8.55;;;10.30;99.90;;;;;;4997023;28;20049;-87
2021/10/30 08:03:22;;;;;;;16.85;8.13;;;10.40;99.90;;;;;;4997589;28;20556;-87
2021/10/30 08:05:48;;;;;;;20.70;8.57;;;10.40;99.90;;;;;;5013655;28;20157;-88
2021/10/30 08:08:13;;;;;;;18.40;8.75;;;10.40;99.90;;;;;;5014143;28;20045;-87
2021/10/30 08:10:39;;;;;;;17.92;8.60;;;10.30;99.90;;;;;;5013474;28;20045;-86
2021/10/30 08:13:11;;;;;;;12.98;8.95;;;10.40;99.90;;;;;;4997686;28;20041;-86
2021/10/30 08:15:37;;;;;;;13.35;8.63;;;10.40;99.90;;;;;;5013983;28;20087;-90
2021/10/30 08:18:03;;;;;;;17.00;9.43;;;10.40;99.90;;;;;;5013621;28;20064;-87
2021/10/30 08:20:29;;;;;;;15.77;8.38;;;10.50;99.90;;;;;;5013355;28;20035;-87
2021/10/30 08:22:55;;;;;;;15.85;8.25;;;10.50;99.90;;;;;;5012766;28;20060;-86
2021/10/30 08:25:21;;;;;;;14.77;8.70;;;10.50;99.90;;;;;;4997312;28;20041;-86
2021/10/30 08:27:46;;;;;;;23.67;9.02;;;10.50;99.90;;;;;;4996901;28;20531;-88
2021/10/30 08:30:12;;;;;;;18.65;8.35;;;10.50;99.90;;;;;;4997660;28;20045;-86
2021/10/30 08:32:38;;;;;;;22.52;9.35;;;10.50;99.90;;;;;;5013092;28;20175;-87
2021/10/30 08:35:04;;;;;;;13.52;8.75;;;10.50;99.90;;;;;;4997119;28;20090;-86
2021/10/30 08:37:30;;;;;;;17.92;9.70;;;10.50;99.90;;;;;;4997278;28;20091;-88
2021/10/30 08:39:56;;;;;;;12.48;8.77;;;10.50;99.90;;;;;;4996975;28;20623;-86
2021/10/30 08:42:22;;;;;;;15.10;8.27;;;10.60;99.90;;;;;;4997244;28;20045;-86
2021/10/30 08:44:49;;;;;;;14.88;9.57;;;10.50;99.90;;;;;;5012888;28;20103;-86
2021/10/30 08:47:18;;;;;;;15.65;8.48;;;10.60;99.90;;;;;;5013266;28;20124;-87
2021/10/30 08:49:44;;;;;;;17.30;8.77;;;10.60;99.90;;;;;;5013001;28;20045;-86
2021/10/30 08:52:10;;;;;;;19.25;10.23;;;10.60;99.90;;;;;;4996956;28;20041;-88
2021/10/30 08:54:38;;;;;;;15.27;8.77;;;10.70;99.90;;;;;;5014907;28;20041;-87
2021/10/30 08:57:08;;;;;;;16.58;9.85;;;10.70;99.90;;;;;;5017239;28;20043;-86
2021/10/30 08:59:45;;;;;;;29.60;10.17;;;10.70;99.90;;;;;;5000991;28;20132;-88
2021/10/30 09:02:30;;;;;;;21.08;8.85;;;10.70;99.90;;;;;;5017485;28;20113;-86
2021/10/30 09:05:17;;;;;;;16.00;8.80;;;10.70;99.90;;;;;;5016799;28;20084;-86
2021/10/30 09:07:45;;;;;;;15.93;9.20;;;10.70;99.90;;;;;;5016825;28;20042;-87
2021/10/30 09:10:11;;;;;;;16.25;9.32;;;10.70;99.90;;;;;;5000980;28;20049;-86
2021/10/30 09:12:37;;;;;;;13.10;8.70;;;10.80;99.90;;;;;;5017207;28;20048;-87
2021/10/30 09:15:03;;;;;;;15.82;9.60;;;10.80;99.90;;;;;;5000308;28;20049;-86
2021/10/30 09:17:29;;;;;;;20.10;9.52;;;10.80;99.90;;;;;;4984499;28;20643;-86
2021/10/30 09:19:55;;;;;;;13.80;9.23;;;10.80;99.90;;;;;;5000444;28;20045;-86
2021/10/30 09:22:24;;;;;;;12.23;8.50;;;10.80;99.90;;;;;;5016483;28;20056;-87
2021/10/30 09:25:19;;;;;;;16.00;9.13;;;10.90;99.90;;;;;;5016609;28;20046;-86
2021/10/30 09:27:59;;;;;;;15.35;9.35;;;10.90;99.90;;;;;;5003478;28;20147;-88
2021/10/30 09:30:26;;;;;;;;;;;10.90;99.90;;;;;;5017316;28;20111;-87
2021/10/30 09:32:58;;;;;;;14.70;8.70;;;10.90;99.90;;;;;;5000058;28;19927;-87
2021/10/30 09:35:33;;;;;;;15.13;9.05;;;10.90;99.90;;;;;;5016695;28;20083;-88
2021/10/30 09:38:00;;;;;;;10.52;7.63;;;11.00;99.90;;;;;;5016089;28;20053;-87
2021/10/30 09:40:29;;;;;;;12.15;7.85;;;11.10;99.90;;;;;;4984166;28;20042;-88
2021/10/30 09:43:18;;;;;;;11.63;8.05;;;11.10;99.90;;;;;;4999895;28;20366;-87
2021/10/30 09:45:53;;;;;;;10.77;7.13;;;11.10;99.90;;;;;;4999662;28;20033;-89
2021/10/30 09:48:24;;;;;;;10.63;7.35;;;11.20;99.90;;;;;;5016545;28;20042;-88
2021/10/30 09:50:55;;;;;;;11.48;7.22;;;11.30;99.90;;;;;;5016895;28;20045;-87
2021/10/30 09:53:48;;;;;;;11.48;7.18;;;11.30;99.90;;;;;;5016223;28;20064;-86
2021/10/30 09:56:15;;;;;;;12.13;7.07;;;11.30;99.90;;;;;;4997510;28;20131;-86
2021/10/30 09:58:44;;;;;;;12.88;7.15;;;11.30;99.90;;;;;;5016389;28;20042;-86
2021/10/30 10:01:11;;;;;;;14.68;6.80;;;11.40;99.90;;;;;;5016168;28;20050;-86
2021/10/30 10:03:38;;;;;;;12.15;7.40;;;11.40;99.90;;;;;;5016185;28;20084;-86
2021/10/30 10:06:07;;;;;;;9.93;7.10;;;11.40;99.90;;;;;;4998433;28;20052;-86
2021/10/30 10:08:37;;;;;;;10.23;7.10;;;11.40;99.90;;;;;;5016100;28;20045;-86
2021/10/30 10:11:05;;;;;;;16.27;7.57;;;11.40;99.90;;;;;;5015857;28;20072;-86
2021/10/30 10:13:31;;;;;;;12.25;7.35;;;11.50;99.90;;;;;;5016195;28;20048;-87
2021/10/30 10:15:58;;;;;;;9.25;7.10;;;11.50;99.90;;;;;;4999333;28;20044;-87
2021/10/30 10:18:25;;;;;;;8.57;7.30;;;11.60;99.90;;;;;;5016015;28;20046;-86
2021/10/30 10:20:51;;;;;;;9.43;6.72;;;11.70;99.90;;;;;;5000131;28;20433;-90
2021/10/30 10:23:20;;;;;;;8.25;6.30;;;11.80;99.90;;;;;;4999819;28;20152;-87
2021/10/30 10:25:51;;;;;;;11.75;6.30;;;11.80;99.90;;;;;;5016569;28;20485;-88
2021/10/30 10:28:36;;;;;;;13.70;6.68;;;11.90;99.90;;;;;;5015884;28;20037;-86
2021/10/30 10:31:10;;;;;;;8.45;5.95;;;12.00;99.90;;;;;;5015614;28;20045;-86
2021/10/30 10:33:37;;;;;;;7.47;5.78;;;12.00;99.90;;;;;;5016234;28;20109;-86
2021/10/30 10:36:23;;;;;;;6.05;5.00;;;12.20;99.90;;;;;;5015290;28;20055;-86
2021/10/30 10:38:58;;;;;;;5.90;5.38;;;12.30;99.90;;;;;;4999369;28;20049;-90
2021/10/30 10:41:45;;;;;;;13.13;5.30;;;12.40;99.90;;;;;;5015751;28;20107;-89
2021/10/30 10:44:20;;;;;;;7.85;5.05;;;12.40;99.90;;;;;;4998748;28;20049;-88
2021/10/30 10:46:51;;;;;;;8.73;5.05;;;12.50;99.90;;;;;;4999573;28;20110;-89
2021/10/30 10:52:17;;;;;;;9.00;4.93;;;12.50;99.90;;;;;;4999610;28;20092;-88
2021/10/30 10:55:04;;;;;;;13.40;5.25;;;12.50;99.90;;;;;;4999639;28;20045;-88
2021/10/30 10:57:32;;;;;;;8.75;5.30;;;12.60;99.90;;;;;;4999479;28;20041;-86
2021/10/30 11:00:05;;;;;;;8.02;4.97;;;12.60;99.90;;;;;;5015472;28;20385;-85
2021/10/30 11:02:33;;;;;;;7.70;5.20;;;12.60;99.90;;;;;;5015974;28;20052;-86
2021/10/30 11:05:08;;;;;;;6.78;4.50;;;12.70;99.90;;;;;;5015643;28;20048;-86
2021/10/30 11:07:49;;;;;;;7.47;4.78;;;12.70;99.90;;;;;;5015107;28;20052;-87
2021/10/30 11:10:20;;;;;;;5.00;4.53;;;12.80;99.90;;;;;;5015143;28;20041;-86
2021/10/30 11:13:05;;;;;;;7.55;4.38;;;12.80;99.90;;;;;;5015124;28;20511;-87
2021/10/30 11:15:48;;;;;;;4.75;3.92;;;12.70;99.90;;;;;;4999679;28;20038;-85
2021/10/30 11:18:25;;;;;;;8.13;4.00;;;12.70;99.90;;;;;;5015790;28;20501;-87
2021/10/30 11:21:03;;;;;;;4.38;3.55;;;12.60;99.90;;;;;;5016107;28;20045;-90
2021/10/30 11:23:31;;;;;;;10.10;4.20;;;12.50;99.90;;;;;;4998476;28;20136;-88
2021/10/30 11:26:07;;;;;;;7.90;4.20;;;12.50;99.90;;;;;;5000440;28;20428;-86
2021/10/30 11:28:42;;;;;;;8.90;3.97;;;12.40;99.90;;;;;;5000488;28;20120;-87
2021/10/30 11:31:16;;;;;;;6.35;4.07;;;12.40;99.90;;;;;;5016224;28;20045;-87
2021/10/30 11:33:43;;;;;;;4.78;4.25;;;12.40;99.90;;;;;;5016551;28;20041;-89
2021/10/30 11:36:11;;;;;;;5.05;4.53;;;12.40;99.90;;;;;;4999903;28;20514;-88
2021/10/30 11:42:09;;;;;;;4.65;4.15;;;12.40;99.90;;;;;;4973923;28;20835;-88
2021/10/30 11:48:16;;;;;;;;;;;12.40;99.90;;;;;;4970582;28;20206;-85
2021/10/30 11:50:55;;;;;;;5.22;4.53;;;12.40;99.90;;;;;;4953930;28;20405;-85
2021/10/30 11:53:21;;;;;;;6.70;4.43;;;12.40;99.90;;;;;;4953752;28;20047;-85
2021/10/30 11:55:54;;;;;;;6.80;4.45;;;12.40;99.90;;;;;;4954050;28;20054;-85
2021/10/30 11:58:50;;;;;;;6.28;4.50;;;12.40;99.90;;;;;;4969982;28;20034;-86
2021/10/30 12:01:38;;;;;;;6.25;4.88;;;12.50;99.90;;;;;;4953774;28;20051;-86
2021/10/30 12:04:20;;;;;;;5.07;4.00;;;12.50;99.90;;;;;;4953819;28;20046;-85
2021/10/30 12:06:48;;;;;;;8.15;4.45;;;12.60;99.90;;;;;;4937366;28;20138;-85
2021/10/30 12:09:22;;;;;;;5.25;4.15;;;12.60;99.90;;;;;;4952413;28;20055;-87
2021/10/30 12:11:56;;;;;;;5.93;4.13;;;12.60;99.90;;;;;;4967514;28;20053;-86
2021/10/30 12:14:25;;;;;;;7.43;3.80;;;12.70;99.90;;;;;;5013101;28;20051;-86
2021/10/30 12:16:51;;;;;;;4.18;3.78;;;12.70;99.90;;;;;;5013189;28;20041;-85
2021/10/30 12:19:18;;;;;;;7.55;3.25;;;12.70;99.90;;;;;;5012728;28;20041;-85
2021/10/30 12:21:44;;;;;;;5.65;3.10;;;12.70;99.90;;;;;;5013325;28;20049;-86
2021/10/30 12:24:15;;;;;;;3.67;3.00;;;12.70;99.90;;;;;;5012174;28;20041;-87
2021/10/30 12:27:03;;;;;;;9.20;3.38;;;12.70;99.90;;;;;;5013227;28;20080;-85
2021/10/30 12:29:30;;;;;;;4.20;3.50;;;12.70;99.90;;;;;;5012462;28;20033;-86
2021/10/30 12:32:10;;;;;;;5.68;3.95;;;12.70;99.90;;;;;;5013622;28;20358;-85
2021/10/30 12:34:38;;;;;;;3.72;3.17;;;12.80;99.90;;;;;;5013616;28;20040;-85
2021/10/30 12:37:06;;;;;;;11.60;3.70;;;12.80;99.90;;;;;;5013247;28;20049;-85
2021/10/30 12:39:32;;;;;;;5.70;3.42;;;12.80;99.90;;;;;;5013222;28;20045;-85
2021/10/30 12:42:06;;;;;;;3.80;3.50;;;12.80;99.90;;;;;;5031201;28;20630;-87
2021/10/30 12:44:40;;;;;;;4.55;4.10;;;12.80;99.90;;;;;;5031063;28;20045;-85
2021/10/30 12:47:12;;;;;;;7.68;4.10;;;12.80;99.90;;;;;;5012733;28;20045;-86
2021/10/30 12:49:40;;;;;;;10.55;4.45;;;12.80;99.90;;;;;;5013532;28;20492;-85
2021/10/30 12:52:13;;;;;;;6.45;4.00;;;12.80;99.90;;;;;;5012941;28;20052;-85